Potsdam, NY

44° 42' 44"N, 74° 57' 12"W, Elevation 460 ft.
Eastern Time

Hourly observations for the last 72 hours

Date Time Temperature (°F) Humi-
dity

(%)
Wind
(mph)
Pressure Rain (in)
Air Dew 6 Hour 1 Hr 3 Hr 6 Hr Day
Alt
(in)
Sea
Level

(mb)
Max Min
19 09:00 2.4 -3.7 75 Calm 29.69 1005.4 0.00
19 08:00 2.4 -3.7 75 Calm 29.64 1003.8 0.00
19 07:00 2.4 -3.7 2.4 2.4 75 Calm 29.60 1002.4 0.00
19 06:00 2.4 -3.7 75 Calm 29.57 1001.5 0.00
19 05:00 2.4 -3.7 75 Calm 29.54 1000.4 0.00
19 04:00 2.4 -3.7 75 Calm 29.51 999.2 0.00
19 03:00 2.4 -3.7 75 Calm 29.49 998.6 0.00
19 02:00 2.4 -3.7 75 Calm 29.48 998.5 0.00
19 01:00 2.4 -3.7 2.4 2.4 75 Calm 29.48 998.2 0.00
19 00:00 2.4 -3.7 75 Calm 29.50 999.2 0.00
18 23:00 2.4 -3.7 75 Calm 29.53 1000.2 0.00
18 22:00 2.4 -3.7 75 Calm 29.57 1001.3 0.00
18 21:00 2.4 -3.7 75 Calm 29.63 1003.4 0.00
18 20:00 2.4 -3.7 75 Calm 29.70 1005.8 0.00
18 19:00 2.4 -3.7 2.4 2.4 75 Calm 29.75 1007.6 0.00
18 18:00 2.4 -3.7 75 Calm 29.82 1009.9 0.00
18 17:00 2.4 -3.7 75 Calm 29.89 1012.1 0.00
18 16:00 2.4 -3.7 75 Calm 29.99 1015.6 0.00
18 15:00 2.4 -3.7 75 Calm 30.11 1019.8 0.00
18 14:00 2.4 -3.7 75 Calm 30.18 1022.0 0.00
18 13:00 2.4 -3.7 2.4 2.4 75 Calm 30.25 1024.4 0.00
18 12:00 2.4 -3.7 75 Calm 30.32 1026.8 0.00
18 11:00 2.4 -3.7 75 Calm 30.40 1029.6 0.00
18 10:00 2.4 -3.7 75 Calm 30.45 1031.2 0.00
18 09:00 2.4 -3.7 75 Calm 30.50 1032.7 0.00
18 08:00 2.4 -3.7 75 Calm 30.53 1033.9 0.00
18 07:00 2.4 -3.7 2.4 2.4 75 Calm 30.59 1036.0 0.00
18 06:00 2.4 -3.7 75 Calm 30.62 1036.9 0.00
18 05:00 2.4 -3.7 75 Calm 30.65 1037.8 0.00
18 04:00 2.4 -3.7 75 Calm 30.70 1039.5 0.00
18 03:00 2.4 -3.7 75 Calm 30.73 1040.7 0.00
18 02:00 2.4 -3.7 75 Calm 30.76 1041.6 0.00
18 01:00 2.4 -3.7 2.4 2.4 75 Calm 30.76 1041.8 0.00
18 00:00 2.4 -3.7 75 Calm 30.77 1041.9 0.00
17 23:00 2.4 -3.7 75 Calm 30.80 1043.2 0.00
17 22:00 2.4 -3.7 75 Calm 30.81 1043.5 0.00
17 21:00 2.4 -3.7 75 Calm 30.81 1043.2 0.00
17 20:00 2.4 -3.7 75 Calm 30.83 1043.9 0.00
17 19:00 2.4 -3.7 5.0 2.4 75 Calm 30.83 1043.9 0.00
17 18:00 2.4 -3.7 75 Calm 30.82 1043.7 0.00
17 17:00 2.4 -3.7 75 Calm 30.82 1043.7 0.00
17 16:00 3.5 -3.2 73 Calm 30.82 1043.8 0.00
17 15:00 4.2 -2.8 72 Calm 30.83 1043.9 0.00
17 14:00 4.7 -2.3 72 Calm 30.82 1043.8 0.00
17 13:00 5.0 -0.1 25.1 -2.9 79 Calm 30.82 1043.8 0.00
17 12:00 3.7 -3.3 72 Calm 30.84 1044.5 0.00
17 11:00 1.9 -4.5 74 Calm 30.85 1044.8 0.00
17 10:00 -1.6 -6.5 79 Calm 30.85 1044.7 0.00
17 09:00 25.1 22.0 88 Calm 30.83 1044.2 0.00
17 08:00 25.1 22.0 88 Calm 30.81 1043.4 0.00
17 07:00 25.1 22.0 25.1 25.1 88 Calm 30.78 1042.5 0.00
17 06:00 25.1 22.0 88 Calm 30.74 1041.1 0.00
17 05:00 25.1 22.0 88 Calm 30.70 1039.6 0.00
17 04:00 25.1 22.0 88 Calm 30.67 1038.5 0.00
17 03:00 25.1 22.0 88 Calm 30.63 1037.1 0.00
17 02:00 25.1 22.0 88 Calm 30.57 1035.4 0.00
17 01:00 25.1 22.0 25.1 25.1 88 Calm 30.51 1033.2 0.00
17 00:00 25.1 22.0 88 Calm 30.47 1031.7 0.00
16 23:00 25.1 22.0 88 Calm 30.43 1030.6 0.00
16 22:00 25.1 22.0 88 Calm 30.40 1029.4 0.00
16 21:00 25.1 22.0 88 Calm 30.36 1028.1 0.00
16 20:00 25.1 22.0 88 Calm 30.31 1026.5 0.00
16 19:00 25.1 22.0 29.7 25.1 88 Calm 30.26 1024.7 0.00
16 18:00 25.1 22.0 88 Calm 30.21 1023.0 0.00
16 17:00 25.1 22.0 88 Calm 30.16 1021.4 0.00
16 16:00 25.1 22.0 88 Calm 30.10 1019.5 0.00
16 15:00 25.8 23.5 91 Calm 30.06 1017.9 0.00
16 14:00 28.1 25.5 90 Calm 30.01 1016.5 0.00
16 13:00 29.6 27.6 33.0 29.6 92 Calm 29.98 1015.4 0.00
16 12:00 29.8 28.0 93 Calm 29.98 1015.1 0.00
16 11:00 33.0 32.0 96 Calm 29.98 1015.3 0.00
16 10:00 33.0 32.0 96 Calm 29.96 1014.6 0.00

Data generated by WxSolution Version 1.9.1.5, Build 2018.05.20.